Estación Meteorológica Peña el Pijo (Robertgarden) [ 02/03/23 03:51:30 CET ]

Fecha Hora Presion(HPa) Temp (°C) Humedad % Rocio (°C) Viento ( m/s) Direccion Lluvia 1Hora(mm) Lluvia 24H(mm) LLuvia Total(mm)
2012-Feb-08 01:01:15 1008.200 -1.9 47 -11.8         153.32
2012-Feb-08 02:06:15 1007.700 -2.4 49 -11.7         153.32
2012-Feb-08 03:01:12 1007.900 -3.2 52 -11.7         153.32
2012-Feb-08 04:01:14 1007.900 -3.9 54 -11.9         153.32
2012-Feb-08 05:01:12 1007.900 -4.7 58 -11.8         153.32
2012-Feb-08 06:01:16 1007.800 -5.6 61 -11.9         153.32
2012-Feb-08 07:01:16 1008.200 -6.4 65 -11.9         153.32
2012-Feb-08 08:01:12 1008.600 -7.3 66 -12.6         153.32
2012-Feb-08 09:01:11 1008.800 -6.9 67 -12.1         153.32
2012-Feb-08 10:01:15 1009.100 -2.7 57 -10.1         153.32
2012-Feb-08 11:01:18 1009.200 0.3 48 -9.5         153.32
2012-Feb-08 12:01:15 1008.600 2.4 39 -10.2         153.32
2012-Feb-08 13:01:11 1008.400 2.8 31 -12.7         153.32
2012-Feb-08 14:01:12 1008.300 3.8 32 -11.5         153.32
2012-Feb-08 15:01:16 1007.900 4.1 32 -11.2         153.32
2012-Feb-08 16:01:17 1008.100 3.8 32 -11.5         153.32
2012-Feb-08 17:01:12 1008.600 3.1 31 -12.4         153.32
2012-Feb-08 18:01:15 1009.200 0.5 37 -12.6         153.32
2012-Feb-08 19:01:13 1009.800 -1.4 43 -12.4         153.32
2012-Feb-08 20:01:12 1010.600 -2.7 52 -11.2         153.32
2012-Feb-08 21:01:12 1011.400 -4.2 59 -11.0         153.32
2012-Feb-08 22:01:18 1011.900 -4.6 60 -11.2         153.32
2012-Feb-08 23:01:14 1012.300 -5.9 64 -11.7         153.32

Temperatura Máxima:    Temperatura Mínima:-7°
Presión Máxima:1012.300 Hpa    Presión Mínima:1007.700 Hpa


Volver